Time;durP1;ratioP1;P1;durP2;ratioP2;P2;SDS_P1;SDS_P2;PMS_P1;PMS_P2;Temp;Humidity;BMP_temperature;BMP_pressure;BME280_temperature;BME280_humidity;BME280_pressure;Samples;Min_cycle;Max_cycle;Signal;HPM_P1;HPM_P2
2023/10/05 00:02:13;;;;;;;8.13;2.30;;;;;;;11.92;100.00;101573.50;6029779;28;20357;-64
2023/10/05 00:05:08;;;;;;;11.95;3.15;;;;;;;11.93;100.00;101577.81;6029640;28;20030;-64
2023/10/05 00:08:07;;;;;;;6.90;2.27;;;;;;;11.93;100.00;101567.19;6026559;28;20061;-64
2023/10/05 00:11:06;;;;;;;9.55;2.38;;;;;;;11.87;100.00;101551.81;6029156;28;20069;-64
2023/10/05 00:14:07;;;;;;;7.38;2.40;;;;;;;11.75;100.00;101541.38;6024596;28;20030;-64
2023/10/05 00:17:07;;;;;;;8.02;2.42;;;;;;;11.77;100.00;101561.53;6028953;28;20041;-64
2023/10/05 00:20:14;;;;;;;9.02;2.50;;;;;;;11.72;100.00;101555.78;6023754;28;20030;-64
2023/10/05 00:23:11;;;;;;;7.60;2.63;;;;;;;11.75;100.00;101547.53;6029162;28;20069;-64
2023/10/05 00:26:07;;;;;;;11.93;2.67;;;;;;;11.76;100.00;101549.25;6028957;28;20761;-64
2023/10/05 00:32:19;;;;;;;10.20;2.70;;;;;;;11.68;100.00;101541.06;6028893;28;20169;-63
2023/10/05 00:35:24;;;;;;;8.63;2.35;;;;;;;11.58;100.00;101537.50;6028830;28;20038;-64
2023/10/05 00:38:20;;;;;;;10.02;2.70;;;;;;;11.44;100.00;101527.22;6027048;28;20081;-64
2023/10/05 00:41:16;;;;;;;9.80;3.35;;;;;;;11.50;100.00;101537.31;6026159;28;20448;-64
2023/10/05 00:44:12;;;;;;;8.40;2.70;;;;;;;11.43;100.00;101520.22;6027333;28;20051;-64
2023/10/05 00:47:08;;;;;;;8.55;2.60;;;;;;;11.53;100.00;101537.06;6028389;28;20397;-64
2023/10/05 00:50:04;;;;;;;11.27;3.55;;;;;;;11.41;100.00;101506.25;6031195;28;20026;-64
2023/10/05 00:52:59;;;;;;;13.45;3.00;;;;;;;11.47;100.00;101521.63;6027949;28;20117;-63
2023/10/05 00:56:14;;;;;;;9.02;3.60;;;;;;;11.53;100.00;101536.19;6038585;28;20044;-64
2023/10/05 00:59:11;;;;;;;10.68;3.33;;;;;;;11.49;100.00;101518.88;6026160;28;20157;-64
2023/10/05 01:02:14;;;;;;;9.18;2.72;;;;;;;11.55;100.00;101535.09;6027621;28;20038;-64
2023/10/05 01:05:15;;;;;;;8.35;2.78;;;;;;;11.49;100.00;101533.00;6028087;28;20118;-64
2023/10/05 01:08:15;;;;;;;9.85;3.13;;;;;;;11.38;100.00;101516.28;6018953;28;20505;-64
2023/10/05 01:11:14;;;;;;;14.35;3.35;;;;;;;11.27;100.00;101496.81;6028035;28;20038;-64
2023/10/05 01:14:15;;;;;;;16.50;3.05;;;;;;;11.52;100.00;101524.75;6027709;28;20031;-64
2023/10/05 01:17:11;;;;;;;12.25;2.80;;;;;;;11.55;100.00;101515.69;6019467;28;20097;-64
2023/10/05 01:20:29;;;;;;;8.07;2.92;;;;;;;11.44;100.00;101495.34;6027393;28;20030;-64
2023/10/05 01:23:37;;;;;;;8.80;2.80;;;;;;;11.71;100.00;101516.88;6027320;28;20128;-64
2023/10/05 01:26:34;;;;;;;11.55;2.58;;;;;;;11.77;100.00;101515.50;6025496;28;20557;-64
2023/10/05 01:29:29;;;;;;;7.93;2.22;;;;;;;11.87;100.00;101525.22;6027598;28;20108;-64
2023/10/05 01:32:26;;;;;;;9.13;2.60;;;;;;;11.80;100.00;101507.28;6027314;28;20041;-64
2023/10/05 01:35:23;;;;;;;8.52;2.05;;;;;;;11.93;100.00;101516.69;6018647;28;20053;-64
2023/10/05 01:38:18;;;;;;;6.78;2.78;;;;;;;11.91;100.00;101509.84;6022824;28;20058;-64
2023/10/05 01:41:20;;;;;;;9.10;2.40;;;;;;;11.88;100.00;101500.31;6027430;28;20108;-64
2023/10/05 01:44:15;;;;;;;10.27;2.65;;;;;;;11.94;100.00;101493.63;6023274;28;20054;-64
2023/10/05 01:47:14;;;;;;;10.13;2.57;;;;;;;11.96;100.00;101493.50;6025927;28;20423;-64
2023/10/05 01:50:19;;;;;;;9.20;2.38;;;;;;;12.05;100.00;101500.63;6030238;28;20057;-64
2023/10/05 01:53:18;;;;;;;12.52;2.95;;;;;;;11.96;100.00;101480.22;6022707;28;20034;-64
2023/10/05 01:56:20;;;;;;;8.48;2.17;;;;;;;11.93;100.00;101482.13;6020170;28;20042;-64
2023/10/05 01:59:20;;;;;;;8.70;2.35;;;;;;;12.05;100.00;101495.31;6022246;28;20177;-64
2023/10/05 02:02:16;;;;;;;7.70;2.28;;;;;;;12.05;100.00;101492.66;6026963;28;20149;-64
2023/10/05 02:05:12;;;;;;;11.17;2.47;;;;;;;12.09;100.00;101483.44;6025485;28;20034;-64
2023/10/05 02:08:08;;;;;;;8.48;2.13;;;;;;;12.08;100.00;101476.44;6026082;28;20030;-64
2023/10/05 02:11:04;;;;;;;6.97;2.58;;;;;;;12.18;100.00;101479.94;6027076;28;20034;-64
2023/10/05 02:14:06;;;;;;;7.10;2.47;;;;;;;12.20;100.00;101467.38;6026307;28;20062;-64
2023/10/05 02:17:03;;;;;;;8.60;2.70;;;;;;;12.21;100.00;101458.41;6026410;28;20125;-64
2023/10/05 02:19:58;;;;;;;16.23;2.63;;;;;;;12.18;100.00;101453.38;6018468;28;20121;-64
2023/10/05 02:22:54;;;;;;;10.93;3.20;;;;;;;12.33;100.00;101463.47;6026609;28;20041;-63
2023/10/05 02:25:56;;;;;;;8.77;2.72;;;;;;;12.37;100.00;101458.69;6021265;28;20038;-64
2023/10/05 02:28:51;;;;;;;8.02;2.60;;;;;;;12.35;100.00;101450.03;6025763;28;20042;-64
2023/10/05 02:35:17;;;;;;;14.20;2.72;;;;;;;12.42;100.00;101457.31;6019184;28;20106;-64
2023/10/05 02:38:18;;;;;;;10.38;2.55;;;;;;;12.37;100.00;101448.91;6020874;28;20417;-64
2023/10/05 02:41:14;;;;;;;9.55;2.50;;;;;;;12.44;100.00;101454.53;6025917;28;20508;-64
2023/10/05 02:44:23;;;;;;;10.90;3.08;;;;;;;12.43;100.00;101448.34;6025870;28;20053;-64
2023/10/05 02:47:24;;;;;;;10.38;2.75;;;;;;;12.38;100.00;101447.94;6021763;28;20073;-64
2023/10/05 02:50:20;;;;;;;7.20;2.22;;;;;;;12.39;100.00;101452.25;6029305;28;20034;-64
2023/10/05 02:53:18;;;;;;;8.73;2.67;;;;;;;12.42;100.00;101467.94;6025703;28;20022;-64
2023/10/05 02:56:16;;;;;;;7.88;2.25;;;;;;;12.35;100.00;101444.72;6025035;28;20042;-64
2023/10/05 02:59:12;;;;;;;17.08;3.40;;;;;;;12.33;100.00;101449.34;6024787;28;20062;-63
2023/10/05 03:02:09;;;;;;;11.48;3.13;;;;;;;12.43;100.00;101455.50;6025368;28;20117;-64
2023/10/05 03:05:07;;;;;;;10.82;2.50;;;;;;;12.41;100.00;101441.50;6025759;28;20030;-64
2023/10/05 03:08:03;;;;;;;9.57;3.30;;;;;;;12.41;100.00;101442.34;6025244;28;20088;-64
2023/10/05 03:10:59;;;;;;;11.60;3.20;;;;;;;12.51;100.00;101447.66;6025103;28;20030;-64
2023/10/05 03:13:58;;;;;;;10.95;3.30;;;;;;;12.46;100.00;101425.94;6025136;28;20034;-64
2023/10/05 03:16:56;;;;;;;9.23;3.03;;;;;;;12.59;100.00;101446.94;6023834;28;20050;-64
2023/10/05 03:19:52;;;;;;;12.15;2.65;;;;;;;12.52;100.00;101433.38;6017428;28;20058;-64
2023/10/05 03:22:47;;;;;;;12.13;2.63;;;;;;;12.64;100.00;101448.19;6025505;28;20480;-64
2023/10/05 03:25:46;;;;;;;7.40;3.38;;;;;;;12.69;100.00;101445.94;6024097;28;20452;-64
2023/10/05 03:28:41;;;;;;;6.75;2.60;;;;;;;12.68;100.00;101430.97;6025255;28;20141;-64
2023/10/05 03:31:53;;;;;;;11.57;2.90;;;;;;;12.80;100.00;101435.16;6017368;28;20168;-64
2023/10/05 03:34:58;;;;;;;8.88;3.25;;;;;;;12.79;100.00;101420.19;6025280;28;20026;-64
2023/10/05 03:37:54;;;;;;;7.72;3.47;;;;;;;12.84;100.00;101420.59;6024828;28;20893;-64
2023/10/05 03:40:49;;;;;;;12.18;2.80;;;;;;;12.85;100.00;101416.94;6025666;28;20077;-64
2023/10/05 03:43:45;;;;;;;10.13;2.80;;;;;;;12.93;100.00;101430.38;6024351;28;20031;-64
2023/10/05 03:46:40;;;;;;;7.82;2.53;;;;;;;12.98;100.00;101427.28;6025188;28;20026;-64
2023/10/05 03:49:36;;;;;;;9.53;3.00;;;;;;;13.00;100.00;101431.47;6027317;28;20039;-64
2023/10/05 03:52:32;;;;;;;10.40;2.65;;;;;;;13.01;100.00;101427.00;6025187;28;20030;-64
2023/10/05 03:55:28;;;;;;;9.15;2.65;;;;;;;12.98;100.00;101417.47;6018250;28;20034;-64
2023/10/05 03:58:23;;;;;;;11.45;2.63;;;;;;;13.07;100.00;101435.25;6019299;28;20047;-64
2023/10/05 04:01:19;;;;;;;11.73;2.40;;;;;;;13.06;100.00;101433.56;6013439;28;20363;-64
2023/10/05 04:04:15;;;;;;;6.65;2.15;;;;;;;12.98;100.00;101411.31;6021547;28;20034;-64
2023/10/05 04:07:11;;;;;;;8.52;2.35;;;;;;;12.95;100.00;101420.44;6011259;28;20121;-64
2023/10/05 04:10:07;;;;;;;7.32;2.40;;;;;;;13.01;100.00;101419.84;6025355;28;20038;-64
2023/10/05 04:13:04;;;;;;;9.13;2.60;;;;;;;12.97;100.00;101420.25;6021996;28;20030;-65
2023/10/05 04:15:59;;;;;;;10.98;2.75;;;;;;;12.96;100.00;101408.78;6028880;28;20026;-64
2023/10/05 04:18:58;;;;;;;7.37;2.30;;;;;;;12.94;100.00;101413.41;6025546;28;20485;-64
2023/10/05 04:21:56;;;;;;;10.27;2.80;;;;;;;13.02;100.00;101418.84;6025040;28;20023;-64
2023/10/05 04:24:52;;;;;;;8.82;2.20;;;;;;;12.98;100.00;101416.63;6029462;28;20057;-64
2023/10/05 04:27:48;;;;;;;12.25;3.05;;;;;;;12.99;100.00;101420.97;6028371;28;20109;-64
2023/10/05 04:30:43;;;;;;;7.57;2.70;;;;;;;12.97;100.00;101414.94;6028541;28;20085;-64
2023/10/05 04:33:42;;;;;;;12.53;2.57;;;;;;;12.93;100.00;101419.75;6029353;28;20418;-64
2023/10/05 04:36:40;;;;;;;12.73;2.38;;;;;;;12.84;100.00;101398.44;6028636;28;20790;-64
2023/10/05 04:39:36;;;;;;;11.20;2.58;;;;;;;12.87;100.00;101409.66;6028629;28;20034;-64
2023/10/05 04:42:31;;;;;;;4.65;2.15;;;;;;;12.83;100.00;101408.25;6028238;28;20038;-64
2023/10/05 04:45:27;;;;;;;7.60;2.13;;;;;;;12.71;100.00;101401.44;6028636;28;20030;-64
2023/10/05 04:48:23;;;;;;;9.80;2.80;;;;;;;12.77;100.00;101403.53;6028015;28;20030;-64
2023/10/05 04:51:20;;;;;;;9.45;2.75;;;;;;;12.75;100.00;101410.78;6033102;28;20031;-64
2023/10/05 04:54:18;;;;;;;9.35;2.75;;;;;;;12.70;100.00;101394.41;6028762;28;20080;-64
2023/10/05 04:57:34;;;;;;;10.93;4.10;;;;;;;12.55;100.00;101387.88;6027996;28;20041;-64
2023/10/05 05:06:35;;;;;;;12.17;3.33;;;;;;;12.51;100.00;101394.44;6024685;28;20022;-64
2023/10/05 05:09:34;;;;;;;7.93;3.33;;;;;;;12.53;100.00;101400.44;6024913;28;20638;-64
2023/10/05 05:12:31;;;;;;;10.02;3.28;;;;;;;12.49;100.00;101407.91;6017644;28;20106;-64
2023/10/05 05:15:27;;;;;;;9.50;3.00;;;;;;;12.42;100.00;101409.41;6020082;28;20094;-64
2023/10/05 05:18:22;;;;;;;7.63;3.53;;;;;;;12.35;100.00;101402.16;6020950;28;20093;-64
2023/10/05 05:21:17;;;;;;;10.33;3.57;;;;;;;12.30;100.00;101383.13;6017222;28;20038;-64
2023/10/05 05:24:13;;;;;;;11.23;3.63;;;;;;;12.28;100.00;101395.72;6021713;28;20441;-64
2023/10/05 05:27:21;;;;;;;8.98;3.55;;;;;;;12.24;100.00;101399.63;6020040;28;20030;-64
2023/10/05 05:30:36;;;;;;;9.40;4.50;;;;;;;12.32;100.00;101408.59;6008962;28;20383;-64
2023/10/05 05:33:31;;;;;;;15.40;4.60;;;;;;;12.29;100.00;101400.88;6013769;28;20034;-64
2023/10/05 05:36:27;;;;;;;10.57;4.63;;;;;;;12.21;100.00;101389.28;6013735;28;20122;-64
2023/10/05 05:39:26;;;;;;;8.80;4.25;;;;;;;12.24;100.00;101399.63;6011260;28;20297;-64
2023/10/05 05:42:25;;;;;;;11.73;4.65;;;;;;;12.23;100.00;101413.94;6021300;28;20043;-64
2023/10/05 05:45:20;;;;;;;13.65;4.78;;;;;;;12.22;100.00;101401.59;6013594;28;20035;-64
2023/10/05 05:48:16;;;;;;;12.20;5.17;;;;;;;12.15;100.00;101392.50;6022183;28;20035;-64
2023/10/05 05:51:14;;;;;;;16.02;5.78;;;;;;;12.23;100.00;101408.59;6025778;28;20456;-64
2023/10/05 05:54:10;;;;;;;13.00;5.88;;;;;;;12.24;100.00;101410.28;6015927;28;20466;-64
2023/10/05 05:57:06;;;;;;;17.80;6.15;;;;;;;12.26;100.00;101416.28;6015891;28;20031;-64
2023/10/05 06:00:11;;;;;;;17.15;6.18;;;;;;;12.13;100.00;101397.09;6011423;28;20093;-64
2023/10/05 06:03:11;;;;;;;14.30;6.75;;;;;;;12.28;100.00;101417.84;6017197;28;20440;-64
2023/10/05 06:06:06;;;;;;;16.27;6.70;;;;;;;12.20;100.00;101406.22;6019506;28;20045;-64
2023/10/05 06:09:07;;;;;;;19.00;7.15;;;;;;;12.32;100.00;101421.88;6020466;28;20057;-64
2023/10/05 06:12:02;;;;;;;17.60;6.45;;;;;;;12.29;100.00;101411.53;6011907;28;20034;-64
2023/10/05 06:14:58;;;;;;;10.15;5.90;;;;;;;12.36;100.00;101414.47;6014210;28;20026;-64
2023/10/05 06:17:53;;;;;;;10.37;6.70;;;;;;;12.34;100.00;101405.78;6013085;28;20039;-64
2023/10/05 06:20:48;;;;;;;11.67;6.50;;;;;;;12.41;100.00;101407.75;6018136;28;20031;-64
2023/10/05 06:23:44;;;;;;;16.40;6.17;;;;;;;12.53;100.00;101421.72;6019929;28;20046;-64
2023/10/05 06:26:40;;;;;;;14.17;4.97;;;;;;;12.55;100.00;101417.94;6015218;28;20034;-64
2023/10/05 06:29:35;;;;;;;13.38;5.45;;;;;;;12.61;100.00;101426.38;6016585;28;20048;-65
2023/10/05 06:32:31;;;;;;;13.57;5.67;;;;;;;12.56;100.00;101392.19;6017380;28;20030;-64
2023/10/05 06:35:26;;;;;;;8.30;4.77;;;;;;;12.81;100.00;101428.00;6014931;28;20034;-64
2023/10/05 06:38:22;;;;;;;10.63;4.57;;;;;;;12.84;100.00;101433.91;6012812;28;20495;-64
2023/10/05 06:41:20;;;;;;;10.82;3.70;;;;;;;12.91;100.00;101436.84;6005407;28;20061;-64
2023/10/05 06:44:15;;;;;;;7.97;4.00;;;;;;;12.94;100.00;101429.38;6020458;28;20390;-64
2023/10/05 06:47:35;;;;;;;10.70;3.80;;;;;;;13.04;100.00;101426.72;6020166;28;20100;-64
2023/10/05 06:50:26;;;;;;;9.77;3.70;;;;;;;13.13;100.00;101422.38;6029122;28;20053;-64
2023/10/05 06:53:21;;;;;;;10.63;2.93;;;;;;;13.28;100.00;101428.91;6022127;28;20533;-64
2023/10/05 06:56:18;;;;;;;8.27;3.33;;;;;;;13.33;100.00;101426.63;6017626;28;20284;-64
2023/10/05 06:59:13;;;;;;;5.75;2.65;;;;;;;13.46;100.00;101433.31;6019059;28;20038;-64
2023/10/05 07:02:08;;;;;;;13.40;3.07;;;;;;;13.62;100.00;101441.50;6008562;28;20034;-64
2023/10/05 07:05:05;;;;;;;5.97;2.60;;;;;;;13.65;100.00;101433.22;6012307;28;20685;-63
2023/10/05 07:08:01;;;;;;;11.75;3.08;;;;;;;13.83;100.00;101443.94;6016940;28;20482;-64
2023/10/05 07:10:56;;;;;;;8.53;2.73;;;;;;;13.89;100.00;101443.31;6019873;28;20035;-65
2023/10/05 07:13:52;;;;;;;8.23;2.75;;;;;;;14.01;100.00;101449.28;6013997;28;20752;-64
2023/10/05 07:16:48;;;;;;;8.73;2.55;;;;;;;13.93;100.00;101449.22;6017956;28;20569;-64
2023/10/05 07:19:48;;;;;;;6.70;2.92;;;;;;;13.82;100.00;101450.25;6017885;28;20035;-64
2023/10/05 07:22:45;;;;;;;11.13;2.85;;;;;;;13.91;100.00;101465.38;6023537;28;20034;-64
2023/10/05 07:25:41;;;;;;;8.90;2.78;;;;;;;14.02;100.00;101469.66;6012706;28;20035;-64
2023/10/05 07:28:36;;;;;;;7.00;2.47;;;;;;;14.06;100.00;101479.88;6010668;28;20030;-64
2023/10/05 07:31:31;;;;;;;6.97;2.70;;;;;;;14.14;100.00;101474.63;6006627;28;20030;-64
2023/10/05 07:34:27;;;;;;;5.18;2.60;;;;;;;14.13;100.00;101472.94;6011318;28;20270;-64
2023/10/05 07:37:23;;;;;;;10.80;3.38;;;;;;;14.17;100.00;101479.66;6010650;28;20113;-65
2023/10/05 07:40:18;;;;;;;12.27;3.10;;;;;;;14.26;100.00;101476.09;6005219;28;20038;-65
2023/10/05 07:43:14;;;;;;;9.37;3.17;;;;;;;14.39;100.00;101449.06;6009775;28;20042;-65
2023/10/05 07:46:09;;;;;;;8.50;3.43;;;;;;;14.60;100.00;101459.41;6010743;28;20437;-65
2023/10/05 07:49:04;;;;;;;12.43;4.17;;;;;;;14.65;100.00;101467.78;6029952;28;20033;-65
2023/10/05 07:52:02;;;;;;;9.23;4.33;;;;;;;14.80;100.00;101474.28;6026189;28;20744;-62
2023/10/05 07:54:57;;;;;;;12.07;4.43;;;;;;;15.01;100.00;101476.59;6021210;28;20750;-64
2023/10/05 07:57:52;;;;;;;9.68;4.50;;;;;;;15.10;100.00;101481.84;6022399;28;20046;-64
2023/10/05 08:00:48;;;;;;;9.52;4.28;;;;;;;15.11;100.00;101466.66;6014925;28;20030;-64
2023/10/05 08:03:45;;;;;;;9.48;4.10;;;;;;;15.01;100.00;101480.09;6023461;28;20033;-64
2023/10/05 08:06:44;;;;;;;12.43;4.57;;;;;;;15.17;100.00;101490.06;6019399;28;20026;-64
2023/10/05 08:09:42;;;;;;;11.63;4.53;;;;;;;14.93;100.00;101503.25;6015896;28;20089;-64
2023/10/05 08:12:37;;;;;;;10.13;4.45;;;;;;;14.94;100.00;101502.25;6016244;28;20031;-64
2023/10/05 08:15:34;;;;;;;7.90;4.10;;;;;;;14.79;100.00;101491.28;6019599;28;20034;-64
2023/10/05 08:18:29;;;;;;;9.27;4.13;;;;;;;14.80;100.00;101499.16;6026913;28;20524;-64
2023/10/05 08:21:25;;;;;;;13.97;4.83;;;;;;;14.93;100.00;101509.44;6018525;28;20038;-64
2023/10/05 08:24:24;;;;;;;7.55;4.00;;;;;;;15.16;100.00;101518.66;6028335;28;20085;-64
2023/10/05 08:27:19;;;;;;;12.05;4.22;;;;;;;15.12;100.00;101511.91;6025792;28;20046;-64
2023/10/05 08:30:15;;;;;;;10.00;4.13;;;;;;;15.21;100.00;101527.03;6027209;28;20053;-64
2023/10/05 08:33:15;;;;;;;10.30;4.33;;;;;;;15.47;98.83;101522.53;6022149;28;20041;-64
2023/10/05 08:36:13;;;;;;;10.75;4.38;;;;;;;15.34;98.67;101530.13;6018492;28;20034;-64
2023/10/05 08:39:08;;;;;;;7.40;3.72;;;;;;;15.36;99.40;101513.91;6025824;28;20070;-64
2023/10/05 08:42:07;;;;;;;9.70;4.10;;;;;;;15.51;98.60;101535.59;6017843;28;20030;-64
2023/10/05 08:45:04;;;;;;;11.50;4.35;;;;;;;15.44;98.03;101533.53;6020320;28;20284;-64
2023/10/05 08:48:00;;;;;;;9.90;4.20;;;;;;;15.36;98.75;101501.41;6022475;28;20398;-64
2023/10/05 08:51:04;;;;;;;9.40;4.03;;;;;;;15.43;98.29;101537.22;6023922;28;20030;-64
2023/10/05 08:54:02;;;;;;;10.32;3.55;;;;;;;15.27;98.26;101530.91;6026326;28;20045;-64
2023/10/05 08:56:58;;;;;;;12.07;4.57;;;;;;;15.40;98.71;101548.22;6023027;28;20429;-64
2023/10/05 08:59:55;;;;;;;9.02;4.07;;;;;;;15.40;98.57;101556.22;6022390;28;20031;-65
2023/10/05 09:02:51;;;;;;;7.93;3.47;;;;;;;15.43;98.76;101552.41;6018479;28;20023;-65
2023/10/05 09:06:42;;;;;;;14.45;4.43;;;;;;;15.37;98.63;101559.22;6028525;28;20066;-65
2023/10/05 09:09:39;;;;;;;7.78;4.10;;;;;;;15.43;99.80;101553.25;6009934;28;20408;-65
2023/10/05 09:12:35;;;;;;;8.55;3.63;;;;;;;15.48;98.83;101550.13;6014335;28;20039;-65
2023/10/05 09:15:37;;;;;;;11.13;3.53;;;;;;;15.64;99.70;101552.06;6011204;28;20027;-64
2023/10/05 09:18:47;;;;;;;9.48;3.28;;;;;;;15.69;96.80;101552.41;6017000;28;20433;-65
2023/10/05 09:21:50;;;;;;;11.68;3.38;;;;;;;15.74;96.50;101555.44;6013298;28;20026;-65
2023/10/05 09:24:54;;;;;;;10.30;3.50;;;;;;;15.77;96.21;101549.78;6014773;28;20036;-65
2023/10/05 09:27:55;;;;;;;8.02;2.70;;;;;;;15.93;95.54;101557.88;6028297;28;20057;-65
2023/10/05 09:30:55;;;;;;;10.02;3.13;;;;;;;16.07;94.42;101562.66;6014614;28;20038;-65
2023/10/05 09:33:54;;;;;;;10.82;2.88;;;;;;;16.05;94.42;101578.88;6019108;28;20026;-65
2023/10/05 09:36:53;;;;;;;5.00;2.78;;;;;;;16.12;93.68;101567.50;6012270;28;20037;-65
2023/10/05 09:39:49;;;;;;;7.22;2.97;;;;;;;16.05;94.67;101553.94;6026583;28;20065;-65
2023/10/05 09:42:45;;;;;;;10.20;3.40;;;;;;;16.23;92.45;101577.91;6025859;28;20500;-64
2023/10/05 09:45:43;;;;;;;8.68;3.17;;;;;;;16.08;93.96;101573.19;6020273;28;20045;-64
2023/10/05 09:48:39;;;;;;;8.05;2.88;;;;;;;16.27;92.91;101588.16;6017207;28;20038;-64
2023/10/05 09:51:35;;;;;;;7.35;2.75;;;;;;;16.14;93.32;101578.91;6022775;28;20037;-64
2023/10/05 09:54:31;;;;;;;8.70;2.42;;;;;;;16.18;94.02;101577.56;6015197;28;20038;-65
2023/10/05 09:57:27;;;;;;;8.85;2.42;;;;;;;16.14;93.91;101585.09;6026104;28;20050;-64
2023/10/05 10:00:30;;;;;;;6.55;2.85;;;;;;;16.26;92.38;101581.13;6010040;28;20110;-64
2023/10/05 10:03:25;;;;;;;9.23;2.20;;;;;;;16.49;91.12;101590.25;6018191;28;20158;-64
2023/10/05 10:06:28;;;;;;;7.33;2.50;;;;;;;16.53;91.19;101578.22;6020870;28;20588;-64
2023/10/05 10:09:26;;;;;;;12.15;2.60;;;;;;;16.50;89.06;101567.81;6015172;28;20038;-64
2023/10/05 10:12:31;;;;;;;9.75;2.30;;;;;;;16.26;89.84;101577.59;6022470;28;20054;-64
2023/10/05 10:15:29;;;;;;;5.63;2.13;;;;;;;16.25;91.48;101570.59;6018387;28;20528;-64
2023/10/05 10:18:37;;;;;;;10.18;2.33;;;;;;;16.50;90.46;101559.78;6014231;28;20034;-64
2023/10/05 10:21:41;;;;;;;8.77;2.58;;;;;;;16.81;88.45;101588.66;6018506;28;20077;-64
2023/10/05 10:24:37;;;;;;;5.10;1.88;;;;;;;16.80;86.87;101581.63;6028043;28;20038;-64
2023/10/05 10:27:35;;;;;;;9.43;2.70;;;;;;;16.66;87.85;101578.59;6016277;28;20030;-64
2023/10/05 10:30:36;;;;;;;10.20;2.30;;;;;;;16.95;87.86;101562.06;6021015;28;20034;-64
2023/10/05 10:33:34;;;;;;;5.80;1.90;;;;;;;17.03;85.34;101586.19;6018485;28;20121;-64
2023/10/05 10:36:46;;;;;;;9.25;2.15;;;;;;;16.72;84.97;101579.78;6015956;28;20047;-64
2023/10/05 10:39:47;;;;;;;6.22;1.80;;;;;;;16.72;86.93;101597.69;6019273;28;20026;-64
2023/10/05 10:42:54;;;;;;;6.13;1.65;;;;;;;16.75;86.23;101597.34;6016678;28;20034;-64
2023/10/05 10:45:50;;;;;;;7.18;2.13;;;;;;;16.61;86.89;101599.69;6017281;28;20035;-64
2023/10/05 10:48:53;;;;;;;7.78;1.98;;;;;;;16.63;87.24;101616.41;6022163;28;20073;-64
2023/10/05 10:51:48;;;;;;;7.90;2.10;;;;;;;16.50;87.64;101596.44;6025537;28;20501;-64
2023/10/05 10:54:48;;;;;;;7.77;2.00;;;;;;;16.81;87.66;101610.09;6026749;28;20042;-64
2023/10/05 10:57:45;;;;;;;5.18;1.90;;;;;;;16.92;86.92;101602.59;6019855;28;20269;-64
2023/10/05 11:00:56;;;;;;;9.77;1.90;;;;;;;16.68;87.69;101597.19;6014342;28;20039;-64
2023/10/05 11:03:55;;;;;;;8.27;1.95;;;;;;;16.61;88.60;101613.06;6017191;28;20397;-65
2023/10/05 11:07:05;;;;;;;6.88;1.70;;;;;;;16.51;87.92;101604.31;6017333;28;20035;-65
2023/10/05 11:10:06;;;;;;;8.80;2.05;;;;;;;16.52;88.15;101603.28;6018938;28;20042;-64
2023/10/05 11:13:14;;;;;;;7.20;2.33;;;;;;;16.55;87.93;101589.59;6005630;28;20031;-65
2023/10/05 11:16:09;;;;;;;6.68;1.80;;;;;;;16.67;88.21;101617.78;6013334;28;20038;-65
2023/10/05 11:19:05;;;;;;;12.10;2.40;;;;;;;16.48;88.46;101595.75;6018288;28;20049;-64
2023/10/05 11:22:04;;;;;;;9.55;2.40;;;;;;;16.36;89.36;101597.06;6032165;28;20280;-64
2023/10/05 11:25:16;;;;;;;8.00;2.00;;;;;;;16.26;89.82;101623.94;6020359;28;20039;-64
2023/10/05 11:28:18;;;;;;;7.53;2.10;;;;;;;16.08;91.12;101617.84;6013836;28;20504;-64
2023/10/05 11:31:14;;;;;;;4.68;1.65;;;;;;;16.02;92.93;101629.19;6014916;28;20035;-64
2023/10/05 11:34:09;;;;;;;8.75;2.00;;;;;;;15.97;93.26;101618.97;6012309;28;20037;-64
2023/10/05 11:37:15;;;;;;;6.20;1.73;;;;;;;15.94;92.39;101602.38;6020875;28;20033;-64
2023/10/05 11:40:23;;;;;;;5.35;1.45;;;;;;;16.15;92.42;101608.16;6007360;28;20038;-65
2023/10/05 11:43:20;;;;;;;5.28;1.73;;;;;;;16.31;90.59;101597.53;6017201;28;20034;-64
2023/10/05 11:46:24;;;;;;;6.60;1.95;;;;;;;16.57;89.33;101589.47;6008588;28;20386;-64
2023/10/05 11:49:20;;;;;;;9.15;2.10;;;;;;;16.61;88.93;101599.69;6018545;28;20038;-64
2023/10/05 11:52:17;;;;;;;6.20;2.10;;;;;;;16.80;88.79;101601.22;6017664;28;20392;-65
2023/10/05 11:55:14;;;;;;;8.85;2.70;;;;;;;16.76;87.70;101596.38;6004107;28;20054;-65
2023/10/05 11:58:10;;;;;;;6.00;1.63;;;;;;;16.62;88.91;101596.00;6015659;28;20085;-64
2023/10/05 12:01:05;;;;;;;7.67;2.07;;;;;;;16.52;90.05;101605.97;6013763;28;20066;-64
2023/10/05 12:04:04;;;;;;;7.18;1.67;;;;;;;16.31;90.95;101602.03;6011367;28;20128;-64
2023/10/05 12:06:59;;;;;;;6.50;2.03;;;;;;;16.16;91.28;101590.28;6019196;28;20113;-65
2023/10/05 12:09:54;;;;;;;6.67;2.00;;;;;;;16.16;91.65;101596.47;6019015;28;20030;-64
2023/10/05 12:12:50;;;;;;;9.23;2.20;;;;;;;16.08;92.43;101601.78;6017992;28;20348;-64
2023/10/05 12:15:45;;;;;;;5.90;1.70;;;;;;;16.06;93.31;101599.25;6014984;28;20092;-65
2023/10/05 12:18:42;;;;;;;7.93;2.33;;;;;;;15.99;93.66;101592.88;6020990;28;20042;-64
2023/10/05 12:21:37;;;;;;;7.85;2.03;;;;;;;16.06;92.87;101593.09;6021049;28;20019;-64
2023/10/05 12:24:33;;;;;;;5.77;1.80;;;;;;;16.06;93.14;101595.78;6029923;28;20057;-64
2023/10/05 12:27:32;;;;;;;6.03;1.70;;;;;;;16.00;92.91;101596.41;6020047;28;20027;-64
2023/10/05 12:30:30;;;;;;;8.63;1.83;;;;;;;16.07;93.86;101613.47;6014181;28;20054;-64
2023/10/05 12:33:25;;;;;;;10.10;2.22;;;;;;;16.01;94.51;101619.47;6022339;28;20534;-64
2023/10/05 12:36:22;;;;;;;8.27;1.90;;;;;;;15.99;93.91;101624.16;6018420;28;20039;-65
2023/10/05 12:39:26;;;;;;;6.75;2.28;;;;;;;16.12;94.44;101613.84;6023439;28;20157;-64
2023/10/05 12:42:21;;;;;;;7.18;1.83;;;;;;;16.19;94.62;101614.06;6019043;28;20035;-64
2023/10/05 12:45:20;;;;;;;8.47;2.17;;;;;;;16.14;94.54;101611.88;6021545;28;20616;-65
2023/10/05 12:48:15;;;;;;;6.80;1.95;;;;;;;16.22;95.03;101609.22;6020345;28;20361;-65
2023/10/05 12:51:11;;;;;;;8.50;1.80;;;;;;;16.10;94.93;101615.84;6032676;28;20035;-65
2023/10/05 12:54:28;;;;;;;6.57;1.98;;;;;;;16.00;95.28;101604.44;6021444;28;20430;-64
2023/10/05 12:57:23;;;;;;;9.50;1.70;;;;;;;16.30;94.35;101617.28;6023574;28;20042;-65
2023/10/05 13:00:21;;;;;;;8.57;2.20;;;;;;;16.58;93.42;101625.94;6022340;28;20414;-64
2023/10/05 13:03:17;;;;;;;5.13;1.90;;;;;;;16.57;92.16;101618.91;6024997;28;20028;-64
2023/10/05 13:06:14;;;;;;;6.22;1.88;;;;;;;16.42;92.29;101615.97;6019225;28;20473;-65
2023/10/05 13:09:13;;;;;;;7.47;2.08;;;;;;;16.27;93.17;101619.44;6021953;28;20042;-65
2023/10/05 13:12:12;;;;;;;3.80;1.65;;;;;;;16.25;93.75;101624.94;6017211;28;20031;-64
2023/10/05 13:15:08;;;;;;;5.85;1.70;;;;;;;16.08;94.48;101609.81;6016126;28;20089;-64
2023/10/05 13:18:19;;;;;;;4.03;1.77;;;;;;;16.13;95.28;101623.56;6017771;28;20034;-64
2023/10/05 13:21:14;;;;;;;5.20;1.70;;;;;;;16.05;94.85;101602.13;6021574;28;20049;-65
2023/10/05 13:24:15;;;;;;;5.40;1.90;;;;;;;16.00;95.22;101609.78;6023276;28;20444;-64
2023/10/05 13:27:11;;;;;;;5.68;1.80;;;;;;;16.08;94.87;101601.78;6015912;28;20023;-64
2023/10/05 13:30:08;;;;;;;9.27;1.95;;;;;;;16.10;94.29;101607.81;6024666;28;20048;-64
2023/10/05 13:33:08;;;;;;;8.07;1.85;;;;;;;16.19;94.07;101625.59;6017269;28;20084;-64
2023/10/05 13:36:12;;;;;;;8.93;1.80;;;;;;;16.25;93.27;101616.91;6021535;28;20053;-64
2023/10/05 13:39:10;;;;;;;4.78;1.88;;;;;;;16.39;93.15;101621.66;6018842;28;20026;-65
2023/10/05 13:42:09;;;;;;;9.90;2.20;;;;;;;16.50;93.07;101618.69;6021828;28;20042;-64
2023/10/05 13:45:10;;;;;;;7.60;1.80;;;;;;;16.47;91.93;101610.97;6014922;28;20113;-65
2023/10/05 13:48:08;;;;;;;6.18;1.85;;;;;;;16.31;92.67;101613.59;6021843;28;20042;-65
2023/10/05 13:51:03;;;;;;;9.60;1.83;;;;;;;16.32;93.10;101615.28;6022231;28;20034;-64
2023/10/05 13:54:06;;;;;;;8.55;1.77;;;;;;;16.34;94.27;101617.78;6017364;28;20037;-65